sensor_id;sensor_type;location;lat;lon;timestamp;P1;durP1;ratioP1;P2;durP2;ratioP2
15929;SDS011;8064;51.142;4.780;2023-02-01T00:02:06;14.70;;;5.33;;
15929;SDS011;8064;51.142;4.780;2023-02-01T00:04:32;14.80;;;5.20;;
15929;SDS011;8064;51.142;4.780;2023-02-01T00:06:57;17.47;;;5.00;;
15929;SDS011;8064;51.142;4.780;2023-02-01T00:09:23;16.17;;;5.53;;
15929;SDS011;8064;51.142;4.780;2023-02-01T00:11:49;13.27;;;4.80;;
15929;SDS011;8064;51.142;4.780;2023-02-01T00:14:15;14.77;;;5.00;;
15929;SDS011;8064;51.142;4.780;2023-02-01T00:16:41;17.37;;;5.43;;
15929;SDS011;8064;51.142;4.780;2023-02-01T00:19:08;18.83;;;5.47;;
15929;SDS011;8064;51.142;4.780;2023-02-01T00:21:36;20.73;;;5.30;;
15929;SDS011;8064;51.142;4.780;2023-02-01T00:24:02;14.87;;;5.77;;
15929;SDS011;8064;51.142;4.780;2023-02-01T00:26:41;17.97;;;5.33;;
15929;SDS011;8064;51.142;4.780;2023-02-01T00:29:10;14.93;;;5.10;;
15929;SDS011;8064;51.142;4.780;2023-02-01T00:31:38;17.30;;;5.70;;
15929;SDS011;8064;51.142;4.780;2023-02-01T00:34:04;16.20;;;5.73;;
15929;SDS011;8064;51.142;4.780;2023-02-01T00:36:32;19.33;;;5.30;;
15929;SDS011;8064;51.142;4.780;2023-02-01T00:38:58;16.57;;;6.10;;
15929;SDS011;8064;51.142;4.780;2023-02-01T00:41:24;17.27;;;5.60;;
15929;SDS011;8064;51.142;4.780;2023-02-01T00:43:50;14.10;;;5.97;;
15929;SDS011;8064;51.142;4.780;2023-02-01T00:46:18;14.90;;;5.27;;
15929;SDS011;8064;51.142;4.780;2023-02-01T00:48:45;15.63;;;5.40;;
15929;SDS011;8064;51.142;4.780;2023-02-01T00:51:11;15.40;;;4.80;;
15929;SDS011;8064;51.142;4.780;2023-02-01T00:53:39;15.17;;;4.93;;
15929;SDS011;8064;51.142;4.780;2023-02-01T00:56:05;14.60;;;4.87;;
15929;SDS011;8064;51.142;4.780;2023-02-01T00:58:32;15.40;;;5.50;;
15929;SDS011;8064;51.142;4.780;2023-02-01T01:03:45;14.80;;;4.87;;
15929;SDS011;8064;51.142;4.780;2023-02-01T01:06:16;12.30;;;4.70;;
15929;SDS011;8064;51.142;4.780;2023-02-01T01:08:44;21.60;;;5.60;;
15929;SDS011;8064;51.142;4.780;2023-02-01T01:11:11;13.23;;;5.10;;
15929;SDS011;8064;51.142;4.780;2023-02-01T01:13:39;14.57;;;5.20;;
15929;SDS011;8064;51.142;4.780;2023-02-01T01:16:06;15.73;;;4.37;;
15929;SDS011;8064;51.142;4.780;2023-02-01T01:18:33;20.80;;;5.57;;
15929;SDS011;8064;51.142;4.780;2023-02-01T01:20:59;15.40;;;4.80;;
15929;SDS011;8064;51.142;4.780;2023-02-01T01:23:25;16.80;;;4.63;;
15929;SDS011;8064;51.142;4.780;2023-02-01T01:25:52;17.10;;;4.37;;
15929;SDS011;8064;51.142;4.780;2023-02-01T01:28:18;10.73;;;4.43;;
15929;SDS011;8064;51.142;4.780;2023-02-01T01:30:43;17.17;;;4.60;;
15929;SDS011;8064;51.142;4.780;2023-02-01T01:33:09;18.67;;;4.40;;
15929;SDS011;8064;51.142;4.780;2023-02-01T01:35:35;16.00;;;5.30;;
15929;SDS011;8064;51.142;4.780;2023-02-01T01:38:01;17.13;;;4.67;;
15929;SDS011;8064;51.142;4.780;2023-02-01T01:40:28;16.23;;;5.27;;
15929;SDS011;8064;51.142;4.780;2023-02-01T01:42:55;19.03;;;4.87;;
15929;SDS011;8064;51.142;4.780;2023-02-01T01:48:09;16.30;;;4.20;;
15929;SDS011;8064;51.142;4.780;2023-02-01T01:50:44;17.40;;;4.47;;
15929;SDS011;8064;51.142;4.780;2023-02-01T01:53:16;12.17;;;4.07;;
15929;SDS011;8064;51.142;4.780;2023-02-01T01:55:47;14.10;;;4.87;;
15929;SDS011;8064;51.142;4.780;2023-02-01T01:58:16;14.77;;;4.13;;
15929;SDS011;8064;51.142;4.780;2023-02-01T02:00:44;12.63;;;4.47;;
15929;SDS011;8064;51.142;4.780;2023-02-01T02:03:18;19.03;;;4.43;;
15929;SDS011;8064;51.142;4.780;2023-02-01T02:05:48;18.50;;;4.17;;
15929;SDS011;8064;51.142;4.780;2023-02-01T02:08:16;15.33;;;3.73;;
15929;SDS011;8064;51.142;4.780;2023-02-01T02:10:45;19.20;;;4.70;;
15929;SDS011;8064;51.142;4.780;2023-02-01T02:13:38;12.67;;;3.57;;
15929;SDS011;8064;51.142;4.780;2023-02-01T02:30:52;15.60;;;4.47;;
15929;SDS011;8064;51.142;4.780;2023-02-01T02:50:58;14.83;;;4.23;;
15929;SDS011;8064;51.142;4.780;2023-02-01T02:53:57;18.00;;;4.77;;
15929;SDS011;8064;51.142;4.780;2023-02-01T02:57:01;12.10;;;3.67;;
15929;SDS011;8064;51.142;4.780;2023-02-01T02:59:48;11.60;;;3.47;;
15929;SDS011;8064;51.142;4.780;2023-02-01T03:02:33;16.73;;;3.53;;
15929;SDS011;8064;51.142;4.780;2023-02-01T03:05:18;17.63;;;3.73;;
15929;SDS011;8064;51.142;4.780;2023-02-01T03:13:36;11.57;;;3.00;;
15929;SDS011;8064;51.142;4.780;2023-02-01T03:16:06;16.83;;;3.83;;
15929;SDS011;8064;51.142;4.780;2023-02-01T03:21:50;12.27;;;3.50;;
15929;SDS011;8064;51.142;4.780;2023-02-01T03:24:23;11.27;;;3.20;;
15929;SDS011;8064;51.142;4.780;2023-02-01T03:26:58;16.23;;;3.80;;
15929;SDS011;8064;51.142;4.780;2023-02-01T03:29:33;13.80;;;3.43;;
15929;SDS011;8064;51.142;4.780;2023-02-01T03:32:05;13.83;;;3.57;;
15929;SDS011;8064;51.142;4.780;2023-02-01T03:34:31;9.90;;;3.13;;
15929;SDS011;8064;51.142;4.780;2023-02-01T03:36:58;14.53;;;3.43;;
15929;SDS011;8064;51.142;4.780;2023-02-01T03:39:30;13.87;;;3.50;;
15929;SDS011;8064;51.142;4.780;2023-02-01T03:42:01;18.87;;;3.60;;
15929;SDS011;8064;51.142;4.780;2023-02-01T03:44:32;15.53;;;3.43;;
15929;SDS011;8064;51.142;4.780;2023-02-01T03:47:05;15.97;;;3.40;;
15929;SDS011;8064;51.142;4.780;2023-02-01T03:49:37;13.73;;;3.03;;
15929;SDS011;8064;51.142;4.780;2023-02-01T03:52:06;10.57;;;3.03;;
15929;SDS011;8064;51.142;4.780;2023-02-01T03:54:36;14.97;;;3.47;;
15929;SDS011;8064;51.142;4.780;2023-02-01T03:57:06;15.70;;;3.37;;
15929;SDS011;8064;51.142;4.780;2023-02-01T03:59:38;14.87;;;3.27;;
15929;SDS011;8064;51.142;4.780;2023-02-01T04:02:06;9.60;;;2.90;;
15929;SDS011;8064;51.142;4.780;2023-02-01T04:04:32;15.13;;;3.73;;
15929;SDS011;8064;51.142;4.780;2023-02-01T04:06:59;15.53;;;3.43;;
15929;SDS011;8064;51.142;4.780;2023-02-01T04:09:26;19.87;;;3.73;;
15929;SDS011;8064;51.142;4.780;2023-02-01T04:11:51;10.80;;;3.27;;
15929;SDS011;8064;51.142;4.780;2023-02-01T04:14:17;11.63;;;3.47;;
15929;SDS011;8064;51.142;4.780;2023-02-01T04:16:43;17.73;;;3.47;;
15929;SDS011;8064;51.142;4.780;2023-02-01T04:19:09;21.80;;;3.73;;
15929;SDS011;8064;51.142;4.780;2023-02-01T04:21:35;11.63;;;3.40;;
15929;SDS011;8064;51.142;4.780;2023-02-01T04:24:00;12.70;;;4.00;;
15929;SDS011;8064;51.142;4.780;2023-02-01T04:26:26;10.30;;;2.93;;
15929;SDS011;8064;51.142;4.780;2023-02-01T04:28:52;13.70;;;3.90;;
15929;SDS011;8064;51.142;4.780;2023-02-01T04:31:18;20.60;;;4.43;;
15929;SDS011;8064;51.142;4.780;2023-02-01T04:33:50;13.10;;;3.73;;
15929;SDS011;8064;51.142;4.780;2023-02-01T04:36:18;13.30;;;3.70;;
15929;SDS011;8064;51.142;4.780;2023-02-01T04:38:54;18.50;;;4.20;;
15929;SDS011;8064;51.142;4.780;2023-02-01T04:41:20;15.77;;;3.57;;
15929;SDS011;8064;51.142;4.780;2023-02-01T04:43:48;14.37;;;3.83;;
15929;SDS011;8064;51.142;4.780;2023-02-01T04:46:15;13.80;;;3.53;;
15929;SDS011;8064;51.142;4.780;2023-02-01T04:48:41;16.47;;;3.63;;
15929;SDS011;8064;51.142;4.780;2023-02-01T04:51:07;15.60;;;3.80;;
15929;SDS011;8064;51.142;4.780;2023-02-01T04:53:33;19.43;;;3.50;;
15929;SDS011;8064;51.142;4.780;2023-02-01T04:55:59;19.03;;;3.50;;
15929;SDS011;8064;51.142;4.780;2023-02-01T04:58:25;12.30;;;3.13;;
15929;SDS011;8064;51.142;4.780;2023-02-01T05:00:50;20.47;;;3.77;;
15929;SDS011;8064;51.142;4.780;2023-02-01T05:03:17;16.00;;;3.80;;
15929;SDS011;8064;51.142;4.780;2023-02-01T05:05:43;22.37;;;4.70;;
15929;SDS011;8064;51.142;4.780;2023-02-01T05:08:08;18.27;;;3.93;;
15929;SDS011;8064;51.142;4.780;2023-02-01T05:10:34;14.00;;;3.13;;
15929;SDS011;8064;51.142;4.780;2023-02-01T05:13:00;18.93;;;4.17;;
15929;SDS011;8064;51.142;4.780;2023-02-01T05:15:44;15.30;;;3.50;;
15929;SDS011;8064;51.142;4.780;2023-02-01T05:18:11;16.00;;;3.47;;
15929;SDS011;8064;51.142;4.780;2023-02-01T05:20:37;19.97;;;4.30;;
15929;SDS011;8064;51.142;4.780;2023-02-01T05:23:03;17.27;;;3.60;;
15929;SDS011;8064;51.142;4.780;2023-02-01T05:25:29;18.53;;;4.00;;
15929;SDS011;8064;51.142;4.780;2023-02-01T05:27:55;20.63;;;3.90;;
15929;SDS011;8064;51.142;4.780;2023-02-01T05:30:20;17.07;;;4.40;;
15929;SDS011;8064;51.142;4.780;2023-02-01T05:32:49;19.47;;;4.20;;
15929;SDS011;8064;51.142;4.780;2023-02-01T05:35:15;18.70;;;4.07;;
15929;SDS011;8064;51.142;4.780;2023-02-01T05:37:41;17.20;;;4.17;;
15929;SDS011;8064;51.142;4.780;2023-02-01T05:40:07;16.63;;;3.60;;
15929;SDS011;8064;51.142;4.780;2023-02-01T05:42:33;17.00;;;3.53;;
15929;SDS011;8064;51.142;4.780;2023-02-01T05:44:59;13.40;;;3.40;;
15929;SDS011;8064;51.142;4.780;2023-02-01T05:47:25;15.30;;;3.80;;
15929;SDS011;8064;51.142;4.780;2023-02-01T05:49:51;21.00;;;3.60;;
15929;SDS011;8064;51.142;4.780;2023-02-01T05:52:17;16.27;;;3.23;;
15929;SDS011;8064;51.142;4.780;2023-02-01T05:54:44;18.50;;;3.23;;
15929;SDS011;8064;51.142;4.780;2023-02-01T05:57:11;14.83;;;3.13;;
15929;SDS011;8064;51.142;4.780;2023-02-01T05:59:38;14.50;;;3.40;;
15929;SDS011;8064;51.142;4.780;2023-02-01T06:02:06;18.47;;;3.53;;
15929;SDS011;8064;51.142;4.780;2023-02-01T06:04:33;16.97;;;3.60;;
15929;SDS011;8064;51.142;4.780;2023-02-01T06:06:59;22.07;;;3.97;;
15929;SDS011;8064;51.142;4.780;2023-02-01T06:09:25;14.20;;;3.30;;
15929;SDS011;8064;51.142;4.780;2023-02-01T06:11:50;14.13;;;3.83;;
15929;SDS011;8064;51.142;4.780;2023-02-01T06:14:16;20.10;;;4.07;;
15929;SDS011;8064;51.142;4.780;2023-02-01T06:16:42;17.47;;;3.67;;
15929;SDS011;8064;51.142;4.780;2023-02-01T06:19:10;16.43;;;3.63;;
15929;SDS011;8064;51.142;4.780;2023-02-01T06:21:36;18.33;;;4.00;;
15929;SDS011;8064;51.142;4.780;2023-02-01T06:24:02;13.70;;;4.03;;
15929;SDS011;8064;51.142;4.780;2023-02-01T06:26:28;17.30;;;4.03;;
15929;SDS011;8064;51.142;4.780;2023-02-01T06:28:54;14.70;;;4.27;;
15929;SDS011;8064;51.142;4.780;2023-02-01T06:31:20;15.83;;;3.87;;
15929;SDS011;8064;51.142;4.780;2023-02-01T06:33:46;21.37;;;5.00;;
15929;SDS011;8064;51.142;4.780;2023-02-01T06:36:12;17.23;;;3.97;;
15929;SDS011;8064;51.142;4.780;2023-02-01T06:38:38;13.03;;;3.20;;
15929;SDS011;8064;51.142;4.780;2023-02-01T06:41:04;16.70;;;3.40;;
15929;SDS011;8064;51.142;4.780;2023-02-01T06:43:31;18.20;;;4.27;;
15929;SDS011;8064;51.142;4.780;2023-02-01T06:45:59;15.57;;;4.13;;
15929;SDS011;8064;51.142;4.780;2023-02-01T06:48:26;14.17;;;3.60;;
15929;SDS011;8064;51.142;4.780;2023-02-01T06:50:52;17.47;;;3.77;;
15929;SDS011;8064;51.142;4.780;2023-02-01T06:53:18;15.20;;;3.40;;
15929;SDS011;8064;51.142;4.780;2023-02-01T06:55:55;20.80;;;4.30;;
15929;SDS011;8064;51.142;4.780;2023-02-01T06:58:23;13.90;;;3.63;;
15929;SDS011;8064;51.142;4.780;2023-02-01T07:00:49;14.67;;;3.37;;
15929;SDS011;8064;51.142;4.780;2023-02-01T07:03:15;16.53;;;3.97;;
15929;SDS011;8064;51.142;4.780;2023-02-01T07:05:41;18.93;;;3.90;;
15929;SDS011;8064;51.142;4.780;2023-02-01T07:08:07;16.93;;;4.23;;
15929;SDS011;8064;51.142;4.780;2023-02-01T07:10:33;16.60;;;4.23;;
15929;SDS011;8064;51.142;4.780;2023-02-01T07:12:59;17.27;;;4.17;;
15929;SDS011;8064;51.142;4.780;2023-02-01T07:15:25;20.60;;;3.70;;
15929;SDS011;8064;51.142;4.780;2023-02-01T07:17:53;16.63;;;4.30;;
15929;SDS011;8064;51.142;4.780;2023-02-01T07:20:20;17.73;;;4.03;;
15929;SDS011;8064;51.142;4.780;2023-02-01T07:22:46;17.90;;;3.20;;
15929;SDS011;8064;51.142;4.780;2023-02-01T07:25:12;15.17;;;4.17;;
15929;SDS011;8064;51.142;4.780;2023-02-01T07:27:37;34.07;;;4.47;;
15929;SDS011;8064;51.142;4.780;2023-02-01T07:30:04;18.37;;;4.30;;
15929;SDS011;8064;51.142;4.780;2023-02-01T07:32:30;18.03;;;3.77;;
15929;SDS011;8064;51.142;4.780;2023-02-01T07:34:56;18.13;;;3.77;;
15929;SDS011;8064;51.142;4.780;2023-02-01T07:37:23;16.73;;;3.97;;
15929;SDS011;8064;51.142;4.780;2023-02-01T07:39:49;20.97;;;4.73;;
15929;SDS011;8064;51.142;4.780;2023-02-01T07:42:16;17.93;;;4.43;;
15929;SDS011;8064;51.142;4.780;2023-02-01T07:44:42;16.97;;;4.20;;
15929;SDS011;8064;51.142;4.780;2023-02-01T07:47:08;17.83;;;4.10;;
15929;SDS011;8064;51.142;4.780;2023-02-01T07:49:34;22.40;;;4.50;;
15929;SDS011;8064;51.142;4.780;2023-02-01T07:52:00;18.20;;;3.90;;
15929;SDS011;8064;51.142;4.780;2023-02-01T07:54:25;18.00;;;3.73;;
15929;SDS011;8064;51.142;4.780;2023-02-01T07:56:51;19.30;;;4.07;;
15929;SDS011;8064;51.142;4.780;2023-02-01T07:59:17;19.03;;;4.13;;
15929;SDS011;8064;51.142;4.780;2023-02-01T08:01:43;16.53;;;4.17;;
15929;SDS011;8064;51.142;4.780;2023-02-01T08:04:09;12.57;;;4.00;;
15929;SDS011;8064;51.142;4.780;2023-02-01T08:06:37;18.27;;;4.07;;
15929;SDS011;8064;51.142;4.780;2023-02-01T08:09:03;21.20;;;3.80;;
15929;SDS011;8064;51.142;4.780;2023-02-01T08:11:30;15.10;;;3.53;;
15929;SDS011;8064;51.142;4.780;2023-02-01T08:13:57;19.83;;;4.20;;
15929;SDS011;8064;51.142;4.780;2023-02-01T08:16:23;19.43;;;4.23;;
15929;SDS011;8064;51.142;4.780;2023-02-01T08:18:50;14.43;;;4.70;;
15929;SDS011;8064;51.142;4.780;2023-02-01T08:21:17;16.40;;;3.93;;
15929;SDS011;8064;51.142;4.780;2023-02-01T08:23:45;15.60;;;3.67;;
15929;SDS011;8064;51.142;4.780;2023-02-01T08:26:12;19.43;;;4.70;;
15929;SDS011;8064;51.142;4.780;2023-02-01T08:28:41;23.77;;;4.37;;
15929;SDS011;8064;51.142;4.780;2023-02-01T08:31:10;15.23;;;3.60;;
15929;SDS011;8064;51.142;4.780;2023-02-01T08:33:39;16.20;;;3.90;;
15929;SDS011;8064;51.142;4.780;2023-02-01T08:36:06;20.73;;;4.60;;
15929;SDS011;8064;51.142;4.780;2023-02-01T08:38:35;19.80;;;4.07;;
15929;SDS011;8064;51.142;4.780;2023-02-01T08:43:44;13.10;;;3.80;;
15929;SDS011;8064;51.142;4.780;2023-02-01T08:46:10;23.13;;;5.17;;
15929;SDS011;8064;51.142;4.780;2023-02-01T08:48:36;15.53;;;3.57;;
15929;SDS011;8064;51.142;4.780;2023-02-01T08:51:03;13.17;;;3.80;;
15929;SDS011;8064;51.142;4.780;2023-02-01T08:53:31;14.37;;;3.40;;
15929;SDS011;8064;51.142;4.780;2023-02-01T08:55:57;12.40;;;3.93;;
15929;SDS011;8064;51.142;4.780;2023-02-01T08:58:23;19.17;;;4.77;;
15929;SDS011;8064;51.142;4.780;2023-02-01T09:00:49;10.93;;;3.77;;
15929;SDS011;8064;51.142;4.780;2023-02-01T09:03:15;17.60;;;3.67;;
15929;SDS011;8064;51.142;4.780;2023-02-01T09:05:41;13.23;;;3.30;;
15929;SDS011;8064;51.142;4.780;2023-02-01T09:08:07;17.77;;;4.47;;
15929;SDS011;8064;51.142;4.780;2023-02-01T09:10:33;17.83;;;4.30;;
15929;SDS011;8064;51.142;4.780;2023-02-01T09:13:01;15.43;;;4.20;;
15929;SDS011;8064;51.142;4.780;2023-02-01T09:15:28;15.17;;;3.97;;
15929;SDS011;8064;51.142;4.780;2023-02-01T09:17:53;16.77;;;4.10;;
15929;SDS011;8064;51.142;4.780;2023-02-01T09:20:19;14.57;;;4.67;;
15929;SDS011;8064;51.142;4.780;2023-02-01T09:22:49;18.00;;;4.33;;
15929;SDS011;8064;51.142;4.780;2023-02-01T09:25:16;17.13;;;3.97;;
15929;SDS011;8064;51.142;4.780;2023-02-01T09:27:41;21.00;;;4.70;;
15929;SDS011;8064;51.142;4.780;2023-02-01T09:30:07;12.67;;;3.60;;
15929;SDS011;8064;51.142;4.780;2023-02-01T09:32:34;17.57;;;4.40;;
15929;SDS011;8064;51.142;4.780;2023-02-01T09:35:01;20.27;;;4.93;;
15929;SDS011;8064;51.142;4.780;2023-02-01T09:37:27;15.53;;;4.17;;
15929;SDS011;8064;51.142;4.780;2023-02-01T09:39:52;16.87;;;4.27;;
15929;SDS011;8064;51.142;4.780;2023-02-01T09:42:23;22.30;;;5.17;;
15929;SDS011;8064;51.142;4.780;2023-02-01T09:50:38;15.87;;;4.90;;
15929;SDS011;8064;51.142;4.780;2023-02-01T09:55:55;15.03;;;4.63;;
15929;SDS011;8064;51.142;4.780;2023-02-01T09:58:38;17.33;;;4.63;;
15929;SDS011;8064;51.142;4.780;2023-02-01T10:01:19;19.10;;;4.80;;
15929;SDS011;8064;51.142;4.780;2023-02-01T10:03:47;17.30;;;4.43;;
15929;SDS011;8064;51.142;4.780;2023-02-01T10:06:29;21.50;;;4.97;;
15929;SDS011;8064;51.142;4.780;2023-02-01T10:08:59;13.43;;;4.57;;
15929;SDS011;8064;51.142;4.780;2023-02-01T10:25:35;17.83;;;4.93;;
15929;SDS011;8064;51.142;4.780;2023-02-01T10:28:06;16.45;;;4.90;;
15929;SDS011;8064;51.142;4.780;2023-02-01T10:30:41;13.48;;;3.85;;
15929;SDS011;8064;51.142;4.780;2023-02-01T10:38:44;13.00;;;4.03;;
15929;SDS011;8064;51.142;4.780;2023-02-01T10:41:12;11.93;;;4.20;;
15929;SDS011;8064;51.142;4.780;2023-02-01T10:43:40;15.25;;;4.53;;
15929;SDS011;8064;51.142;4.780;2023-02-01T10:46:07;13.20;;;4.03;;
15929;SDS011;8064;51.142;4.780;2023-02-01T10:48:33;12.65;;;3.72;;
15929;SDS011;8064;51.142;4.780;2023-02-01T10:51:00;14.98;;;3.85;;
15929;SDS011;8064;51.142;4.780;2023-02-01T10:53:42;11.15;;;4.15;;
15929;SDS011;8064;51.142;4.780;2023-02-01T10:56:18;15.98;;;4.13;;
15929;SDS011;8064;51.142;4.780;2023-02-01T10:58:48;16.08;;;4.30;;
15929;SDS011;8064;51.142;4.780;2023-02-01T11:01:16;10.93;;;3.75;;
15929;SDS011;8064;51.142;4.780;2023-02-01T11:06:26;15.25;;;4.22;;
15929;SDS011;8064;51.142;4.780;2023-02-01T11:08:55;13.23;;;4.30;;
15929;SDS011;8064;51.142;4.780;2023-02-01T11:11:23;12.45;;;4.18;;
15929;SDS011;8064;51.142;4.780;2023-02-01T11:13:52;12.52;;;4.10;;
15929;SDS011;8064;51.142;4.780;2023-02-01T11:16:20;12.00;;;3.92;;
15929;SDS011;8064;51.142;4.780;2023-02-01T11:18:46;11.15;;;3.63;;
15929;SDS011;8064;51.142;4.780;2023-02-01T11:21:19;12.05;;;3.45;;
15929;SDS011;8064;51.142;4.780;2023-02-01T11:23:47;12.23;;;3.35;;
15929;SDS011;8064;51.142;4.780;2023-02-01T11:26:14;11.73;;;3.22;;
15929;SDS011;8064;51.142;4.780;2023-02-01T11:28:52;12.30;;;3.03;;
15929;SDS011;8064;51.142;4.780;2023-02-01T11:31:23;10.77;;;2.93;;
15929;SDS011;8064;51.142;4.780;2023-02-01T11:33:51;10.97;;;2.60;;
15929;SDS011;8064;51.142;4.780;2023-02-01T11:36:22;10.57;;;3.30;;
15929;SDS011;8064;51.142;4.780;2023-02-01T11:52:55;9.80;;;2.70;;
15929;SDS011;8064;51.142;4.780;2023-02-01T12:04:39;11.63;;;3.03;;
15929;SDS011;8064;51.142;4.780;2023-02-01T12:07:28;7.87;;;2.27;;
15929;SDS011;8064;51.142;4.780;2023-02-01T12:18:23;14.27;;;2.57;;
15929;SDS011;8064;51.142;4.780;2023-02-01T12:20:57;11.03;;;2.47;;
15929;SDS011;8064;51.142;4.780;2023-02-01T12:27:00;11.50;;;2.60;;
15929;SDS011;8064;51.142;4.780;2023-02-01T12:43:59;10.43;;;2.50;;
15929;SDS011;8064;51.142;4.780;2023-02-01T12:49:41;10.87;;;2.43;;
15929;SDS011;8064;51.142;4.780;2023-02-01T12:58:04;8.80;;;2.50;;
15929;SDS011;8064;51.142;4.780;2023-02-01T13:06:16;7.80;;;2.23;;
15929;SDS011;8064;51.142;4.780;2023-02-01T13:11:52;9.43;;;2.57;;
15929;SDS011;8064;51.142;4.780;2023-02-01T13:17:03;8.83;;;1.90;;
15929;SDS011;8064;51.142;4.780;2023-02-01T13:19:40;8.77;;;1.80;;
15929;SDS011;8064;51.142;4.780;2023-02-01T13:22:22;11.87;;;2.30;;
15929;SDS011;8064;51.142;4.780;2023-02-01T13:24:53;8.43;;;2.27;;
15929;SDS011;8064;51.142;4.780;2023-02-01T13:27:23;7.57;;;2.13;;
15929;SDS011;8064;51.142;4.780;2023-02-01T13:29:56;9.90;;;2.30;;
15929;SDS011;8064;51.142;4.780;2023-02-01T13:32:30;14.03;;;2.83;;
15929;SDS011;8064;51.142;4.780;2023-02-01T13:35:23;12.87;;;2.27;;
15929;SDS011;8064;51.142;4.780;2023-02-01T13:43:47;9.23;;;2.27;;
15929;SDS011;8064;51.142;4.780;2023-02-01T13:46:17;11.63;;;2.40;;
15929;SDS011;8064;51.142;4.780;2023-02-01T13:48:57;12.60;;;3.20;;
15929;SDS011;8064;51.142;4.780;2023-02-01T13:54:32;12.50;;;2.70;;
15929;SDS011;8064;51.142;4.780;2023-02-01T13:57:00;10.10;;;2.07;;
15929;SDS011;8064;51.142;4.780;2023-02-01T14:26:20;11.47;;;2.57;;
15929;SDS011;8064;51.142;4.780;2023-02-01T14:28:50;9.33;;;2.77;;
15929;SDS011;8064;51.142;4.780;2023-02-01T14:31:37;12.93;;;3.17;;
15929;SDS011;8064;51.142;4.780;2023-02-01T14:37:09;8.37;;;2.90;;
15929;SDS011;8064;51.142;4.780;2023-02-01T14:39:58;9.70;;;1.90;;
15929;SDS011;8064;51.142;4.780;2023-02-01T14:48:39;11.83;;;2.70;;
15929;SDS011;8064;51.142;4.780;2023-02-01T14:50:42;12.77;;;2.60;;
15929;SDS011;8064;51.142;4.780;2023-02-01T14:55:40;10.27;;;2.53;;
15929;SDS011;8064;51.142;4.780;2023-02-01T14:58:27;13.40;;;2.80;;
15929;SDS011;8064;51.142;4.780;2023-02-01T15:06:46;12.00;;;2.83;;
15929;SDS011;8064;51.142;4.780;2023-02-01T15:12:04;10.40;;;2.17;;
15929;SDS011;8064;51.142;4.780;2023-02-01T15:14:41;11.07;;;2.60;;
15929;SDS011;8064;51.142;4.780;2023-02-01T15:17:19;15.10;;;2.97;;
15929;SDS011;8064;51.142;4.780;2023-02-01T15:19:58;7.77;;;2.47;;
15929;SDS011;8064;51.142;4.780;2023-02-01T15:22:27;9.67;;;2.23;;
15929;SDS011;8064;51.142;4.780;2023-02-01T15:24:54;11.10;;;2.77;;
15929;SDS011;8064;51.142;4.780;2023-02-01T15:27:22;9.60;;;2.67;;
15929;SDS011;8064;51.142;4.780;2023-02-01T15:29:48;13.83;;;3.43;;
15929;SDS011;8064;51.142;4.780;2023-02-01T15:35:00;12.17;;;3.03;;
15929;SDS011;8064;51.142;4.780;2023-02-01T15:37:27;15.20;;;2.87;;
15929;SDS011;8064;51.142;4.780;2023-02-01T15:42:58;10.47;;;2.80;;
15929;SDS011;8064;51.142;4.780;2023-02-01T15:45:25;14.13;;;2.77;;
15929;SDS011;8064;51.142;4.780;2023-02-01T15:47:54;9.67;;;2.73;;
15929;SDS011;8064;51.142;4.780;2023-02-01T15:50:21;14.77;;;3.30;;
15929;SDS011;8064;51.142;4.780;2023-02-01T15:52:49;14.47;;;3.00;;
15929;SDS011;8064;51.142;4.780;2023-02-01T15:55:18;14.33;;;2.90;;
15929;SDS011;8064;51.142;4.780;2023-02-01T15:57:49;15.57;;;3.70;;
15929;SDS011;8064;51.142;4.780;2023-02-01T16:03:23;11.13;;;3.00;;
15929;SDS011;8064;51.142;4.780;2023-02-01T16:06:04;11.30;;;2.93;;
15929;SDS011;8064;51.142;4.780;2023-02-01T16:08:31;15.90;;;3.33;;
15929;SDS011;8064;51.142;4.780;2023-02-01T16:11:00;12.33;;;2.57;;
15929;SDS011;8064;51.142;4.780;2023-02-01T16:13:40;12.47;;;3.20;;
15929;SDS011;8064;51.142;4.780;2023-02-01T16:16:07;13.13;;;2.90;;
15929;SDS011;8064;51.142;4.780;2023-02-01T16:18:38;14.00;;;2.97;;
15929;SDS011;8064;51.142;4.780;2023-02-01T16:21:05;17.77;;;3.20;;
15929;SDS011;8064;51.142;4.780;2023-02-01T16:23:33;17.43;;;3.73;;
15929;SDS011;8064;51.142;4.780;2023-02-01T16:26:00;10.43;;;2.80;;
15929;SDS011;8064;51.142;4.780;2023-02-01T16:28:25;12.60;;;3.30;;
15929;SDS011;8064;51.142;4.780;2023-02-01T16:30:51;14.93;;;3.27;;
15929;SDS011;8064;51.142;4.780;2023-02-01T16:33:18;16.77;;;3.10;;
15929;SDS011;8064;51.142;4.780;2023-02-01T16:35:47;13.93;;;3.73;;
15929;SDS011;8064;51.142;4.780;2023-02-01T16:38:14;10.47;;;3.17;;
15929;SDS011;8064;51.142;4.780;2023-02-01T16:40:43;13.37;;;2.97;;
15929;SDS011;8064;51.142;4.780;2023-02-01T16:43:12;17.70;;;4.27;;
15929;SDS011;8064;51.142;4.780;2023-02-01T16:45:40;13.03;;;3.30;;
15929;SDS011;8064;51.142;4.780;2023-02-01T16:48:07;14.00;;;3.80;;
15929;SDS011;8064;51.142;4.780;2023-02-01T16:50:33;18.87;;;3.50;;
15929;SDS011;8064;51.142;4.780;2023-02-01T16:52:59;17.23;;;3.77;;
15929;SDS011;8064;51.142;4.780;2023-02-01T16:55:26;14.40;;;3.13;;
15929;SDS011;8064;51.142;4.780;2023-02-01T16:57:52;21.10;;;4.07;;
15929;SDS011;8064;51.142;4.780;2023-02-01T17:00:18;15.33;;;3.93;;
15929;SDS011;8064;51.142;4.780;2023-02-01T17:02:45;13.20;;;2.77;;
15929;SDS011;8064;51.142;4.780;2023-02-01T17:05:11;17.00;;;4.13;;
15929;SDS011;8064;51.142;4.780;2023-02-01T17:07:37;13.80;;;3.80;;
15929;SDS011;8064;51.142;4.780;2023-02-01T17:10:05;15.57;;;3.37;;
15929;SDS011;8064;51.142;4.780;2023-02-01T17:12:41;12.20;;;3.70;;
15929;SDS011;8064;51.142;4.780;2023-02-01T17:15:08;15.47;;;3.57;;
15929;SDS011;8064;51.142;4.780;2023-02-01T17:17:36;12.10;;;3.77;;
15929;SDS011;8064;51.142;4.780;2023-02-01T17:20:03;15.57;;;3.50;;
15929;SDS011;8064;51.142;4.780;2023-02-01T17:22:30;17.30;;;3.40;;
15929;SDS011;8064;51.142;4.780;2023-02-01T17:24:57;11.77;;;3.37;;
15929;SDS011;8064;51.142;4.780;2023-02-01T17:27:22;16.60;;;3.57;;
15929;SDS011;8064;51.142;4.780;2023-02-01T17:29:48;10.27;;;3.17;;
15929;SDS011;8064;51.142;4.780;2023-02-01T17:32:16;13.63;;;3.30;;
15929;SDS011;8064;51.142;4.780;2023-02-01T17:34:45;16.43;;;3.53;;
15929;SDS011;8064;51.142;4.780;2023-02-01T17:37:25;15.07;;;3.70;;
15929;SDS011;8064;51.142;4.780;2023-02-01T17:39:54;12.53;;;3.10;;
15929;SDS011;8064;51.142;4.780;2023-02-01T17:42:20;16.83;;;3.97;;
15929;SDS011;8064;51.142;4.780;2023-02-01T17:44:55;17.03;;;5.13;;
15929;SDS011;8064;51.142;4.780;2023-02-01T17:47:22;18.57;;;4.83;;
15929;SDS011;8064;51.142;4.780;2023-02-01T17:49:48;17.57;;;5.13;;
15929;SDS011;8064;51.142;4.780;2023-02-01T17:52:20;17.27;;;5.30;;
15929;SDS011;8064;51.142;4.780;2023-02-01T17:54:47;16.37;;;5.07;;
15929;SDS011;8064;51.142;4.780;2023-02-01T17:57:14;13.83;;;4.70;;
15929;SDS011;8064;51.142;4.780;2023-02-01T17:59:41;11.63;;;4.13;;
15929;SDS011;8064;51.142;4.780;2023-02-01T18:02:18;9.07;;;3.30;;
15929;SDS011;8064;51.142;4.780;2023-02-01T18:04:47;18.70;;;3.53;;
15929;SDS011;8064;51.142;4.780;2023-02-01T18:07:14;18.77;;;3.80;;
15929;SDS011;8064;51.142;4.780;2023-02-01T18:09:39;10.37;;;3.13;;
15929;SDS011;8064;51.142;4.780;2023-02-01T18:12:05;16.97;;;3.50;;
15929;SDS011;8064;51.142;4.780;2023-02-01T18:14:37;14.17;;;3.23;;
15929;SDS011;8064;51.142;4.780;2023-02-01T18:17:03;9.93;;;3.70;;
15929;SDS011;8064;51.142;4.780;2023-02-01T18:19:29;17.77;;;3.83;;
15929;SDS011;8064;51.142;4.780;2023-02-01T18:21:54;20.10;;;3.63;;
15929;SDS011;8064;51.142;4.780;2023-02-01T18:24:22;18.00;;;4.30;;
15929;SDS011;8064;51.142;4.780;2023-02-01T18:26:49;16.53;;;3.63;;
15929;SDS011;8064;51.142;4.780;2023-02-01T18:29:16;14.60;;;3.47;;
15929;SDS011;8064;51.142;4.780;2023-02-01T18:31:44;16.97;;;4.00;;
15929;SDS011;8064;51.142;4.780;2023-02-01T18:34:13;14.20;;;3.80;;